sensor_id;sensor_type;location;lat;lon;timestamp;P1;durP1;ratioP1;P2;durP2;ratioP2
39874;SDS011;25547;52.530;13.194;2023-02-01T00:00:43;15.95;;;0.80;;
39874;SDS011;25547;52.530;13.194;2023-02-01T00:03:09;10.00;;;1.67;;
39874;SDS011;25547;52.530;13.194;2023-02-01T00:05:36;15.40;;;1.25;;
39874;SDS011;25547;52.530;13.194;2023-02-01T00:08:01;9.90;;;0.85;;
39874;SDS011;25547;52.530;13.194;2023-02-01T00:10:29;11.95;;;1.27;;
39874;SDS011;25547;52.530;13.194;2023-02-01T00:12:55;23.67;;;2.10;;
39874;SDS011;25547;52.530;13.194;2023-02-01T00:15:20;10.35;;;0.80;;
39874;SDS011;25547;52.530;13.194;2023-02-01T00:17:48;10.48;;;0.73;;
39874;SDS011;25547;52.530;13.194;2023-02-01T00:20:17;9.27;;;1.58;;
39874;SDS011;25547;52.530;13.194;2023-02-01T00:22:43;10.52;;;0.82;;
39874;SDS011;25547;52.530;13.194;2023-02-01T00:25:11;16.30;;;1.15;;
39874;SDS011;25547;52.530;13.194;2023-02-01T00:27:36;16.77;;;1.15;;
39874;SDS011;25547;52.530;13.194;2023-02-01T00:30:02;17.73;;;1.75;;
39874;SDS011;25547;52.530;13.194;2023-02-01T00:32:28;12.70;;;0.60;;
39874;SDS011;25547;52.530;13.194;2023-02-01T00:34:54;14.60;;;0.73;;
39874;SDS011;25547;52.530;13.194;2023-02-01T00:37:22;9.80;;;0.50;;
39874;SDS011;25547;52.530;13.194;2023-02-01T00:39:48;12.43;;;0.35;;
39874;SDS011;25547;52.530;13.194;2023-02-01T00:42:16;15.02;;;0.30;;
39874;SDS011;25547;52.530;13.194;2023-02-01T00:44:41;15.70;;;2.28;;
39874;SDS011;25547;52.530;13.194;2023-02-01T00:47:07;13.00;;;0.30;;
39874;SDS011;25547;52.530;13.194;2023-02-01T00:49:32;11.63;;;1.02;;
39874;SDS011;25547;52.530;13.194;2023-02-01T00:52:00;15.20;;;0.40;;
39874;SDS011;25547;52.530;13.194;2023-02-01T00:54:26;11.82;;;0.22;;
39874;SDS011;25547;52.530;13.194;2023-02-01T00:56:52;12.15;;;0.52;;
39874;SDS011;25547;52.530;13.194;2023-02-01T00:59:20;11.77;;;1.50;;
39874;SDS011;25547;52.530;13.194;2023-02-01T01:01:48;11.43;;;0.65;;
39874;SDS011;25547;52.530;13.194;2023-02-01T01:04:13;11.27;;;0.40;;
39874;SDS011;25547;52.530;13.194;2023-02-01T01:06:39;7.50;;;0.73;;
39874;SDS011;25547;52.530;13.194;2023-02-01T01:09:05;11.00;;;1.83;;
39874;SDS011;25547;52.530;13.194;2023-02-01T01:11:33;11.65;;;1.02;;
39874;SDS011;25547;52.530;13.194;2023-02-01T01:14:00;6.57;;;0.25;;
39874;SDS011;25547;52.530;13.194;2023-02-01T01:16:29;9.23;;;0.82;;
39874;SDS011;25547;52.530;13.194;2023-02-01T01:18:56;12.05;;;0.40;;
39874;SDS011;25547;52.530;13.194;2023-02-01T01:21:22;9.32;;;0.63;;
39874;SDS011;25547;52.530;13.194;2023-02-01T01:23:50;7.75;;;0.30;;
39874;SDS011;25547;52.530;13.194;2023-02-01T01:26:19;11.73;;;0.47;;
39874;SDS011;25547;52.530;13.194;2023-02-01T01:28:49;6.57;;;0.77;;
39874;SDS011;25547;52.530;13.194;2023-02-01T01:31:20;13.05;;;1.33;;
39874;SDS011;25547;52.530;13.194;2023-02-01T01:33:49;14.32;;;0.43;;
39874;SDS011;25547;52.530;13.194;2023-02-01T01:36:19;8.43;;;0.85;;
39874;SDS011;25547;52.530;13.194;2023-02-01T01:38:45;17.25;;;1.15;;
39874;SDS011;25547;52.530;13.194;2023-02-01T01:41:30;15.85;;;0.75;;
39874;SDS011;25547;52.530;13.194;2023-02-01T01:44:00;7.38;;;0.38;;
39874;SDS011;25547;52.530;13.194;2023-02-01T01:51:38;8.18;;;0.73;;
39874;SDS011;25547;52.530;13.194;2023-02-01T01:56:47;10.00;;;0.60;;
39874;SDS011;25547;52.530;13.194;2023-02-01T01:59:16;8.90;;;0.70;;
39874;SDS011;25547;52.530;13.194;2023-02-01T02:01:42;10.55;;;0.88;;
39874;SDS011;25547;52.530;13.194;2023-02-01T02:04:11;11.30;;;1.48;;
39874;SDS011;25547;52.530;13.194;2023-02-01T02:06:39;23.63;;;0.77;;
39874;SDS011;25547;52.530;13.194;2023-02-01T02:09:05;18.90;;;0.70;;
39874;SDS011;25547;52.530;13.194;2023-02-01T02:11:31;10.80;;;0.85;;
39874;SDS011;25547;52.530;13.194;2023-02-01T02:14:00;15.10;;;0.85;;
39874;SDS011;25547;52.530;13.194;2023-02-01T02:39:08;13.73;;;1.75;;
39874;SDS011;25547;52.530;13.194;2023-02-01T02:41:51;13.45;;;0.73;;
39874;SDS011;25547;52.530;13.194;2023-02-01T02:44:54;10.98;;;1.67;;
39874;SDS011;25547;52.530;13.194;2023-02-01T02:53:24;18.52;;;1.33;;
39874;SDS011;25547;52.530;13.194;2023-02-01T02:56:16;16.98;;;1.48;;
39874;SDS011;25547;52.530;13.194;2023-02-01T02:59:06;14.25;;;1.30;;
39874;SDS011;25547;52.530;13.194;2023-02-01T03:01:52;13.77;;;0.47;;
39874;SDS011;25547;52.530;13.194;2023-02-01T03:04:38;13.50;;;0.30;;
39874;SDS011;25547;52.530;13.194;2023-02-01T03:07:13;14.70;;;0.40;;
39874;SDS011;25547;52.530;13.194;2023-02-01T03:09:59;14.55;;;1.33;;
39874;SDS011;25547;52.530;13.194;2023-02-01T03:12:29;10.02;;;0.45;;
39874;SDS011;25547;52.530;13.194;2023-02-01T03:15:21;13.07;;;1.15;;
39874;SDS011;25547;52.530;13.194;2023-02-01T03:17:57;16.73;;;0.75;;
39874;SDS011;25547;52.530;13.194;2023-02-01T03:20:27;19.35;;;2.58;;
39874;SDS011;25547;52.530;13.194;2023-02-01T03:22:55;11.30;;;0.38;;
39874;SDS011;25547;52.530;13.194;2023-02-01T03:25:23;15.00;;;0.50;;
39874;SDS011;25547;52.530;13.194;2023-02-01T03:27:57;17.70;;;1.25;;
39874;SDS011;25547;52.530;13.194;2023-02-01T03:30:34;17.65;;;0.88;;
39874;SDS011;25547;52.530;13.194;2023-02-01T03:33:04;8.63;;;0.30;;
39874;SDS011;25547;52.530;13.194;2023-02-01T03:35:50;9.05;;;0.57;;
39874;SDS011;25547;52.530;13.194;2023-02-01T03:38:37;16.08;;;1.17;;
39874;SDS011;25547;52.530;13.194;2023-02-01T03:41:17;9.85;;;0.50;;
39874;SDS011;25547;52.530;13.194;2023-02-01T03:44:13;13.55;;;1.80;;
39874;SDS011;25547;52.530;13.194;2023-02-01T03:46:49;15.15;;;1.13;;
39874;SDS011;25547;52.530;13.194;2023-02-01T03:49:33;13.57;;;1.55;;
39874;SDS011;25547;52.530;13.194;2023-02-01T03:52:02;12.80;;;1.17;;
39874;SDS011;25547;52.530;13.194;2023-02-01T03:54:30;10.75;;;0.55;;
39874;SDS011;25547;52.530;13.194;2023-02-01T03:56:59;25.38;;;2.83;;
39874;SDS011;25547;52.530;13.194;2023-02-01T03:59:32;11.23;;;0.45;;
39874;SDS011;25547;52.530;13.194;2023-02-01T04:01:57;19.45;;;1.50;;
39874;SDS011;25547;52.530;13.194;2023-02-01T04:04:25;19.67;;;0.75;;
39874;SDS011;25547;52.530;13.194;2023-02-01T04:06:51;12.52;;;0.30;;
39874;SDS011;25547;52.530;13.194;2023-02-01T04:09:16;20.50;;;0.70;;
39874;SDS011;25547;52.530;13.194;2023-02-01T04:11:43;13.50;;;1.15;;
39874;SDS011;25547;52.530;13.194;2023-02-01T04:14:09;12.85;;;0.47;;
39874;SDS011;25547;52.530;13.194;2023-02-01T04:16:35;14.98;;;0.40;;
39874;SDS011;25547;52.530;13.194;2023-02-01T04:19:04;21.40;;;2.33;;
39874;SDS011;25547;52.530;13.194;2023-02-01T04:21:32;12.35;;;1.02;;
39874;SDS011;25547;52.530;13.194;2023-02-01T04:24:00;13.60;;;0.50;;
39874;SDS011;25547;52.530;13.194;2023-02-01T04:26:27;16.00;;;0.52;;
39874;SDS011;25547;52.530;13.194;2023-02-01T04:28:58;20.52;;;1.75;;
39874;SDS011;25547;52.530;13.194;2023-02-01T04:31:23;18.15;;;2.47;;
39874;SDS011;25547;52.530;13.194;2023-02-01T04:33:52;18.10;;;0.80;;
39874;SDS011;25547;52.530;13.194;2023-02-01T04:36:19;14.55;;;1.23;;
39874;SDS011;25547;52.530;13.194;2023-02-01T04:38:47;14.95;;;0.85;;
39874;SDS011;25547;52.530;13.194;2023-02-01T04:41:18;16.42;;;0.60;;
39874;SDS011;25547;52.530;13.194;2023-02-01T04:43:48;10.70;;;0.57;;
39874;SDS011;25547;52.530;13.194;2023-02-01T04:46:17;16.95;;;0.60;;
39874;SDS011;25547;52.530;13.194;2023-02-01T04:48:43;18.23;;;1.25;;
39874;SDS011;25547;52.530;13.194;2023-02-01T04:51:11;15.73;;;0.40;;
39874;SDS011;25547;52.530;13.194;2023-02-01T04:53:38;17.60;;;1.95;;
39874;SDS011;25547;52.530;13.194;2023-02-01T04:56:06;9.00;;;0.88;;
39874;SDS011;25547;52.530;13.194;2023-02-01T04:58:35;14.40;;;0.43;;
39874;SDS011;25547;52.530;13.194;2023-02-01T05:01:04;17.73;;;1.88;;
39874;SDS011;25547;52.530;13.194;2023-02-01T05:03:36;9.05;;;0.82;;
39874;SDS011;25547;52.530;13.194;2023-02-01T05:08:29;9.80;;;0.40;;
39874;SDS011;25547;52.530;13.194;2023-02-01T05:10:56;15.10;;;0.70;;
39874;SDS011;25547;52.530;13.194;2023-02-01T05:13:27;18.98;;;1.33;;
39874;SDS011;25547;52.530;13.194;2023-02-01T05:16:11;14.55;;;0.90;;
39874;SDS011;25547;52.530;13.194;2023-02-01T05:18:37;12.38;;;1.00;;
39874;SDS011;25547;52.530;13.194;2023-02-01T05:21:03;17.38;;;0.85;;
39874;SDS011;25547;52.530;13.194;2023-02-01T05:23:31;18.88;;;1.17;;
39874;SDS011;25547;52.530;13.194;2023-02-01T05:26:00;16.70;;;1.48;;
39874;SDS011;25547;52.530;13.194;2023-02-01T05:28:26;11.60;;;0.88;;
39874;SDS011;25547;52.530;13.194;2023-02-01T05:30:56;20.15;;;1.58;;
39874;SDS011;25547;52.530;13.194;2023-02-01T05:33:22;16.17;;;0.40;;
39874;SDS011;25547;52.530;13.194;2023-02-01T05:35:52;9.55;;;0.55;;
39874;SDS011;25547;52.530;13.194;2023-02-01T05:38:18;12.70;;;0.98;;
39874;SDS011;25547;52.530;13.194;2023-02-01T05:40:46;11.68;;;1.38;;
39874;SDS011;25547;52.530;13.194;2023-02-01T05:43:14;12.30;;;0.73;;
39874;SDS011;25547;52.530;13.194;2023-02-01T05:45:40;15.13;;;1.85;;
39874;SDS011;25547;52.530;13.194;2023-02-01T05:48:05;14.52;;;1.35;;
39874;SDS011;25547;52.530;13.194;2023-02-01T05:50:31;9.48;;;0.60;;
39874;SDS011;25547;52.530;13.194;2023-02-01T05:52:56;16.17;;;0.82;;
39874;SDS011;25547;52.530;13.194;2023-02-01T05:55:22;8.25;;;0.20;;
39874;SDS011;25547;52.530;13.194;2023-02-01T05:57:48;14.77;;;1.17;;
39874;SDS011;25547;52.530;13.194;2023-02-01T06:00:16;15.82;;;1.00;;
39874;SDS011;25547;52.530;13.194;2023-02-01T06:02:42;15.25;;;0.68;;
39874;SDS011;25547;52.530;13.194;2023-02-01T06:05:10;11.85;;;1.63;;
39874;SDS011;25547;52.530;13.194;2023-02-01T06:07:37;11.10;;;1.75;;
39874;SDS011;25547;52.530;13.194;2023-02-01T06:10:03;16.95;;;0.82;;
39874;SDS011;25547;52.530;13.194;2023-02-01T06:12:29;10.40;;;0.82;;
39874;SDS011;25547;52.530;13.194;2023-02-01T06:14:55;19.15;;;1.73;;
39874;SDS011;25547;52.530;13.194;2023-02-01T06:17:23;15.55;;;1.40;;
39874;SDS011;25547;52.530;13.194;2023-02-01T06:19:51;14.25;;;0.63;;
39874;SDS011;25547;52.530;13.194;2023-02-01T06:22:19;11.35;;;0.57;;
39874;SDS011;25547;52.530;13.194;2023-02-01T06:24:46;20.67;;;1.42;;
39874;SDS011;25547;52.530;13.194;2023-02-01T06:27:17;12.75;;;0.85;;
39874;SDS011;25547;52.530;13.194;2023-02-01T06:29:43;15.73;;;0.70;;
39874;SDS011;25547;52.530;13.194;2023-02-01T06:32:08;12.40;;;1.27;;
39874;SDS011;25547;52.530;13.194;2023-02-01T06:34:37;15.25;;;1.25;;
39874;SDS011;25547;52.530;13.194;2023-02-01T06:37:04;17.35;;;0.80;;
39874;SDS011;25547;52.530;13.194;2023-02-01T06:39:30;13.90;;;1.65;;
39874;SDS011;25547;52.530;13.194;2023-02-01T06:41:58;12.88;;;1.25;;
39874;SDS011;25547;52.530;13.194;2023-02-01T06:44:24;13.35;;;1.20;;
39874;SDS011;25547;52.530;13.194;2023-02-01T06:46:52;18.40;;;1.63;;
39874;SDS011;25547;52.530;13.194;2023-02-01T06:49:22;17.33;;;0.45;;
39874;SDS011;25547;52.530;13.194;2023-02-01T06:51:50;9.93;;;0.77;;
39874;SDS011;25547;52.530;13.194;2023-02-01T06:54:16;15.65;;;1.15;;
39874;SDS011;25547;52.530;13.194;2023-02-01T06:56:42;16.98;;;1.20;;
39874;SDS011;25547;52.530;13.194;2023-02-01T06:59:10;10.25;;;1.85;;
39874;SDS011;25547;52.530;13.194;2023-02-01T07:01:39;13.43;;;1.52;;
39874;SDS011;25547;52.530;13.194;2023-02-01T07:04:04;14.68;;;0.63;;
39874;SDS011;25547;52.530;13.194;2023-02-01T07:06:30;15.38;;;0.73;;
39874;SDS011;25547;52.530;13.194;2023-02-01T07:08:56;11.38;;;0.73;;
39874;SDS011;25547;52.530;13.194;2023-02-01T07:11:22;10.32;;;0.30;;
39874;SDS011;25547;52.530;13.194;2023-02-01T07:13:48;10.95;;;0.40;;
39874;SDS011;25547;52.530;13.194;2023-02-01T07:16:15;11.60;;;0.50;;
39874;SDS011;25547;52.530;13.194;2023-02-01T07:18:44;17.02;;;0.88;;
39874;SDS011;25547;52.530;13.194;2023-02-01T07:21:10;16.17;;;2.78;;
39874;SDS011;25547;52.530;13.194;2023-02-01T07:23:36;14.95;;;0.88;;
39874;SDS011;25547;52.530;13.194;2023-02-01T07:26:03;17.95;;;0.50;;
39874;SDS011;25547;52.530;13.194;2023-02-01T07:28:32;14.23;;;0.98;;
39874;SDS011;25547;52.530;13.194;2023-02-01T07:31:04;11.77;;;1.58;;
39874;SDS011;25547;52.530;13.194;2023-02-01T07:33:31;7.50;;;0.77;;
39874;SDS011;25547;52.530;13.194;2023-02-01T07:36:03;14.63;;;1.00;;
39874;SDS011;25547;52.530;13.194;2023-02-01T07:38:31;16.65;;;0.90;;
39874;SDS011;25547;52.530;13.194;2023-02-01T07:40:57;9.98;;;0.70;;
39874;SDS011;25547;52.530;13.194;2023-02-01T07:43:24;13.85;;;1.15;;
39874;SDS011;25547;52.530;13.194;2023-02-01T07:45:51;9.57;;;1.02;;
39874;SDS011;25547;52.530;13.194;2023-02-01T07:48:20;10.52;;;0.63;;
39874;SDS011;25547;52.530;13.194;2023-02-01T07:50:56;12.68;;;0.52;;
39874;SDS011;25547;52.530;13.194;2023-02-01T07:53:23;15.48;;;3.10;;
39874;SDS011;25547;52.530;13.194;2023-02-01T07:55:49;8.65;;;0.98;;
39874;SDS011;25547;52.530;13.194;2023-02-01T07:58:17;6.57;;;0.68;;
39874;SDS011;25547;52.530;13.194;2023-02-01T08:00:45;10.40;;;1.15;;
39874;SDS011;25547;52.530;13.194;2023-02-01T08:03:29;12.23;;;1.10;;
39874;SDS011;25547;52.530;13.194;2023-02-01T08:05:57;10.68;;;1.55;;
39874;SDS011;25547;52.530;13.194;2023-02-01T08:08:23;17.02;;;1.85;;
39874;SDS011;25547;52.530;13.194;2023-02-01T08:10:48;12.70;;;1.00;;
39874;SDS011;25547;52.530;13.194;2023-02-01T08:13:15;7.00;;;0.38;;
39874;SDS011;25547;52.530;13.194;2023-02-01T08:15:43;13.20;;;0.88;;
39874;SDS011;25547;52.530;13.194;2023-02-01T08:18:08;12.00;;;0.52;;
39874;SDS011;25547;52.530;13.194;2023-02-01T08:20:35;7.28;;;0.55;;
39874;SDS011;25547;52.530;13.194;2023-02-01T08:23:07;7.35;;;0.50;;
39874;SDS011;25547;52.530;13.194;2023-02-01T08:25:35;7.80;;;0.40;;
39874;SDS011;25547;52.530;13.194;2023-02-01T08:28:03;17.23;;;3.42;;
39874;SDS011;25547;52.530;13.194;2023-02-01T08:30:29;3.90;;;0.20;;
39874;SDS011;25547;52.530;13.194;2023-02-01T08:32:55;7.97;;;0.60;;
39874;SDS011;25547;52.530;13.194;2023-02-01T08:35:23;14.25;;;1.08;;
39874;SDS011;25547;52.530;13.194;2023-02-01T08:37:51;8.48;;;0.30;;
39874;SDS011;25547;52.530;13.194;2023-02-01T08:40:19;5.35;;;0.70;;
39874;SDS011;25547;52.530;13.194;2023-02-01T08:42:46;10.82;;;0.90;;
39874;SDS011;25547;52.530;13.194;2023-02-01T08:45:19;6.75;;;0.55;;
39874;SDS011;25547;52.530;13.194;2023-02-01T08:47:50;4.88;;;0.50;;
39874;SDS011;25547;52.530;13.194;2023-02-01T08:50:16;6.75;;;0.35;;
39874;SDS011;25547;52.530;13.194;2023-02-01T08:52:42;5.55;;;0.50;;
39874;SDS011;25547;52.530;13.194;2023-02-01T08:55:10;6.05;;;0.22;;
39874;SDS011;25547;52.530;13.194;2023-02-01T08:57:36;4.22;;;0.10;;
39874;SDS011;25547;52.530;13.194;2023-02-01T09:00:03;1.63;;;0.20;;
39874;SDS011;25547;52.530;13.194;2023-02-01T09:02:30;3.63;;;0.20;;
39874;SDS011;25547;52.530;13.194;2023-02-01T09:05:01;3.40;;;0.20;;
39874;SDS011;25547;52.530;13.194;2023-02-01T09:07:27;4.93;;;0.30;;
39874;SDS011;25547;52.530;13.194;2023-02-01T09:09:52;2.58;;;0.10;;
39874;SDS011;25547;52.530;13.194;2023-02-01T09:12:22;2.88;;;0.10;;
39874;SDS011;25547;52.530;13.194;2023-02-01T09:14:48;12.02;;;1.45;;
39874;SDS011;25547;52.530;13.194;2023-02-01T09:17:15;3.13;;;0.10;;
39874;SDS011;25547;52.530;13.194;2023-02-01T09:19:41;2.85;;;0.10;;
39874;SDS011;25547;52.530;13.194;2023-02-01T09:22:07;3.75;;;0.20;;
39874;SDS011;25547;52.530;13.194;2023-02-01T09:24:32;2.47;;;0.03;;
39874;SDS011;25547;52.530;13.194;2023-02-01T09:26:58;5.80;;;0.70;;
39874;SDS011;25547;52.530;13.194;2023-02-01T09:29:24;1.00;;;0.00;;
39874;SDS011;25547;52.530;13.194;2023-02-01T09:31:52;2.80;;;0.10;;
39874;SDS011;25547;52.530;13.194;2023-02-01T09:34:20;2.92;;;0.10;;
39874;SDS011;25547;52.530;13.194;2023-02-01T09:36:46;2.92;;;0.40;;
39874;SDS011;25547;52.530;13.194;2023-02-01T09:39:11;3.50;;;0.10;;
39874;SDS011;25547;52.530;13.194;2023-02-01T09:46:56;2.05;;;0.20;;
39874;SDS011;25547;52.530;13.194;2023-02-01T09:49:31;2.42;;;0.00;;
39874;SDS011;25547;52.530;13.194;2023-02-01T09:52:01;1.88;;;0.00;;
39874;SDS011;25547;52.530;13.194;2023-02-01T09:57:17;1.20;;;0.20;;
39874;SDS011;25547;52.530;13.194;2023-02-01T09:59:53;1.85;;;0.00;;
39874;SDS011;25547;52.530;13.194;2023-02-01T10:02:40;2.72;;;0.08;;
39874;SDS011;25547;52.530;13.194;2023-02-01T10:05:11;5.82;;;0.10;;
39874;SDS011;25547;52.530;13.194;2023-02-01T10:07:43;1.35;;;0.00;;
39874;SDS011;25547;52.530;13.194;2023-02-01T10:15:48;3.30;;;0.35;;
39874;SDS011;25547;52.530;13.194;2023-02-01T10:19:03;3.03;;;0.20;;
39874;SDS011;25547;52.530;13.194;2023-02-01T10:26:54;3.35;;;0.00;;
39874;SDS011;25547;52.530;13.194;2023-02-01T10:29:43;5.00;;;0.10;;
39874;SDS011;25547;52.530;13.194;2023-02-01T10:32:16;5.18;;;0.10;;
39874;SDS011;25547;52.530;13.194;2023-02-01T10:34:58;0.90;;;0.10;;
39874;SDS011;25547;52.530;13.194;2023-02-01T10:37:31;1.73;;;0.05;;
39874;SDS011;25547;52.530;13.194;2023-02-01T10:39:59;2.13;;;0.00;;
39874;SDS011;25547;52.530;13.194;2023-02-01T10:42:30;5.63;;;1.45;;
39874;SDS011;25547;52.530;13.194;2023-02-01T10:44:57;5.05;;;0.10;;
39874;SDS011;25547;52.530;13.194;2023-02-01T10:47:26;2.15;;;0.10;;
39874;SDS011;25547;52.530;13.194;2023-02-01T10:49:58;2.17;;;0.20;;
39874;SDS011;25547;52.530;13.194;2023-02-01T10:58:04;2.88;;;0.03;;
39874;SDS011;25547;52.530;13.194;2023-02-01T11:00:49;2.75;;;0.10;;
39874;SDS011;25547;52.530;13.194;2023-02-01T11:05:54;6.00;;;0.20;;
39874;SDS011;25547;52.530;13.194;2023-02-01T11:08:25;3.10;;;0.10;;
39874;SDS011;25547;52.530;13.194;2023-02-01T11:11:00;4.40;;;0.08;;
39874;SDS011;25547;52.530;13.194;2023-02-01T11:13:28;2.97;;;0.10;;
39874;SDS011;25547;52.530;13.194;2023-02-01T11:16:01;11.23;;;0.10;;
39874;SDS011;25547;52.530;13.194;2023-02-01T11:18:32;7.90;;;1.05;;
39874;SDS011;25547;52.530;13.194;2023-02-01T11:21:01;11.73;;;0.55;;
39874;SDS011;25547;52.530;13.194;2023-02-01T11:23:30;7.28;;;0.98;;
39874;SDS011;25547;52.530;13.194;2023-02-01T11:26:02;11.48;;;0.22;;
39874;SDS011;25547;52.530;13.194;2023-02-01T11:28:50;6.43;;;0.32;;
39874;SDS011;25547;52.530;13.194;2023-02-01T11:31:38;3.40;;;0.10;;
39874;SDS011;25547;52.530;13.194;2023-02-01T11:34:11;7.00;;;0.73;;
39874;SDS011;25547;52.530;13.194;2023-02-01T11:36:48;5.03;;;0.20;;
39874;SDS011;25547;52.530;13.194;2023-02-01T11:39:23;9.00;;;0.30;;
39874;SDS011;25547;52.530;13.194;2023-02-01T11:47:28;6.38;;;0.17;;
39874;SDS011;25547;52.530;13.194;2023-02-01T11:50:14;6.30;;;0.10;;
39874;SDS011;25547;52.530;13.194;2023-02-01T12:14:30;5.47;;;0.28;;
39874;SDS011;25547;52.530;13.194;2023-02-01T12:25:13;5.88;;;0.30;;
39874;SDS011;25547;52.530;13.194;2023-02-01T12:30:40;6.82;;;0.25;;
39874;SDS011;25547;52.530;13.194;2023-02-01T12:33:22;4.55;;;0.20;;
39874;SDS011;25547;52.530;13.194;2023-02-01T12:36:18;7.50;;;0.32;;
39874;SDS011;25547;52.530;13.194;2023-02-01T12:47:03;4.05;;;0.55;;
39874;SDS011;25547;52.530;13.194;2023-02-01T12:52:40;8.90;;;0.45;;
39874;SDS011;25547;52.530;13.194;2023-02-01T12:57:52;8.18;;;0.70;;
39874;SDS011;25547;52.530;13.194;2023-02-01T13:01:00;8.48;;;0.30;;
39874;SDS011;25547;52.530;13.194;2023-02-01T13:06:17;3.53;;;0.10;;
39874;SDS011;25547;52.530;13.194;2023-02-01T13:09:00;4.47;;;0.30;;
39874;SDS011;25547;52.530;13.194;2023-02-01T13:11:33;2.83;;;0.22;;
39874;SDS011;25547;52.530;13.194;2023-02-01T13:14:03;4.38;;;0.20;;
39874;SDS011;25547;52.530;13.194;2023-02-01T13:16:35;4.20;;;0.10;;
39874;SDS011;25547;52.530;13.194;2023-02-01T13:21:47;7.00;;;0.20;;
39874;SDS011;25547;52.530;13.194;2023-02-01T13:27:00;2.80;;;0.10;;
39874;SDS011;25547;52.530;13.194;2023-02-01T13:29:27;5.20;;;0.30;;
39874;SDS011;25547;52.530;13.194;2023-02-01T13:34:46;7.63;;;0.20;;
39874;SDS011;25547;52.530;13.194;2023-02-01T13:37:37;8.63;;;0.30;;
39874;SDS011;25547;52.530;13.194;2023-02-01T13:45:25;12.55;;;0.73;;
39874;SDS011;25547;52.530;13.194;2023-02-01T13:47:55;5.47;;;0.30;;
39874;SDS011;25547;52.530;13.194;2023-02-01T13:50:30;8.85;;;0.22;;
39874;SDS011;25547;52.530;13.194;2023-02-01T13:55:37;10.55;;;0.20;;
39874;SDS011;25547;52.530;13.194;2023-02-01T13:58:28;9.25;;;1.23;;
39874;SDS011;25547;52.530;13.194;2023-02-01T14:01:31;9.18;;;0.43;;
39874;SDS011;25547;52.530;13.194;2023-02-01T14:03:46;4.97;;;0.45;;
39874;SDS011;25547;52.530;13.194;2023-02-01T14:06:35;11.80;;;0.65;;
39874;SDS011;25547;52.530;13.194;2023-02-01T14:11:49;12.60;;;1.50;;
39874;SDS011;25547;52.530;13.194;2023-02-01T14:16:42;7.28;;;0.60;;
39874;SDS011;25547;52.530;13.194;2023-02-01T14:19:21;9.30;;;0.38;;
39874;SDS011;25547;52.530;13.194;2023-02-01T14:21:55;6.75;;;0.57;;
39874;SDS011;25547;52.530;13.194;2023-02-01T14:24:26;6.47;;;0.20;;
39874;SDS011;25547;52.530;13.194;2023-02-01T14:26:58;5.20;;;0.30;;
39874;SDS011;25547;52.530;13.194;2023-02-01T14:29:32;13.25;;;1.60;;
39874;SDS011;25547;52.530;13.194;2023-02-01T14:37:33;9.95;;;0.35;;
39874;SDS011;25547;52.530;13.194;2023-02-01T14:58:29;8.75;;;0.40;;
39874;SDS011;25547;52.530;13.194;2023-02-01T15:00:57;1.73;;;0.10;;
39874;SDS011;25547;52.530;13.194;2023-02-01T15:08:54;3.08;;;0.10;;
39874;SDS011;25547;52.530;13.194;2023-02-01T15:11:26;3.28;;;0.85;;
39874;SDS011;25547;52.530;13.194;2023-02-01T15:13:53;4.22;;;0.10;;
39874;SDS011;25547;52.530;13.194;2023-02-01T15:16:21;4.13;;;0.38;;
39874;SDS011;25547;52.530;13.194;2023-02-01T15:18:48;2.90;;;0.10;;
39874;SDS011;25547;52.530;13.194;2023-02-01T15:21:16;3.58;;;0.10;;
39874;SDS011;25547;52.530;13.194;2023-02-01T15:23:47;1.83;;;0.00;;
39874;SDS011;25547;52.530;13.194;2023-02-01T15:26:30;1.77;;;0.00;;
39874;SDS011;25547;52.530;13.194;2023-02-01T15:28:57;0.85;;;0.00;;
39874;SDS011;25547;52.530;13.194;2023-02-01T15:34:00;0.77;;;0.00;;
39874;SDS011;25547;52.530;13.194;2023-02-01T15:36:26;0.60;;;0.00;;
39874;SDS011;25547;52.530;13.194;2023-02-01T15:44:52;5.32;;;0.65;;
39874;SDS011;25547;52.530;13.194;2023-02-01T15:47:18;0.40;;;0.00;;
39874;SDS011;25547;52.530;13.194;2023-02-01T15:49:58;1.10;;;0.00;;
39874;SDS011;25547;52.530;13.194;2023-02-01T15:55:00;0.50;;;0.00;;
39874;SDS011;25547;52.530;13.194;2023-02-01T15:57:31;0.43;;;0.00;;
39874;SDS011;25547;52.530;13.194;2023-02-01T16:00:04;1.23;;;0.10;;
39874;SDS011;25547;52.530;13.194;2023-02-01T16:04:58;0.32;;;0.00;;
39874;SDS011;25547;52.530;13.194;2023-02-01T16:07:28;1.65;;;0.08;;
39874;SDS011;25547;52.530;13.194;2023-02-01T16:09:57;0.28;;;0.00;;
39874;SDS011;25547;52.530;13.194;2023-02-01T16:12:30;0.43;;;0.00;;
39874;SDS011;25547;52.530;13.194;2023-02-01T16:15:10;0.00;;;0.00;;
39874;SDS011;25547;52.530;13.194;2023-02-01T16:17:40;0.30;;;0.00;;
39874;SDS011;25547;52.530;13.194;2023-02-01T16:20:10;0.00;;;0.00;;
39874;SDS011;25547;52.530;13.194;2023-02-01T16:22:37;0.30;;;0.00;;
39874;SDS011;25547;52.530;13.194;2023-02-01T16:25:02;0.30;;;0.00;;
39874;SDS011;25547;52.530;13.194;2023-02-01T16:27:33;0.22;;;0.00;;
39874;SDS011;25547;52.530;13.194;2023-02-01T16:30:01;0.43;;;0.00;;
39874;SDS011;25547;52.530;13.194;2023-02-01T16:32:27;0.20;;;0.00;;
39874;SDS011;25547;52.530;13.194;2023-02-01T16:34:54;0.98;;;0.10;;
39874;SDS011;25547;52.530;13.194;2023-02-01T16:37:26;0.10;;;0.00;;
39874;SDS011;25547;52.530;13.194;2023-02-01T16:39:57;0.50;;;0.00;;
39874;SDS011;25547;52.530;13.194;2023-02-01T16:42:22;0.30;;;0.00;;
39874;SDS011;25547;52.530;13.194;2023-02-01T16:44:50;0.80;;;0.00;;
39874;SDS011;25547;52.530;13.194;2023-02-01T16:47:17;0.08;;;0.00;;
39874;SDS011;25547;52.530;13.194;2023-02-01T16:49:45;1.05;;;0.73;;
39874;SDS011;25547;52.530;13.194;2023-02-01T16:52:14;0.15;;;0.00;;
39874;SDS011;25547;52.530;13.194;2023-02-01T16:54:46;0.22;;;0.00;;
39874;SDS011;25547;52.530;13.194;2023-02-01T16:57:13;0.13;;;0.00;;
39874;SDS011;25547;52.530;13.194;2023-02-01T16:59:40;2.25;;;0.10;;
39874;SDS011;25547;52.530;13.194;2023-02-01T17:02:17;1.40;;;0.00;;
39874;SDS011;25547;52.530;13.194;2023-02-01T17:04:44;2.58;;;0.00;;
39874;SDS011;25547;52.530;13.194;2023-02-01T17:07:18;1.13;;;0.00;;
39874;SDS011;25547;52.530;13.194;2023-02-01T17:09:45;1.58;;;0.00;;
39874;SDS011;25547;52.530;13.194;2023-02-01T17:12:25;2.00;;;0.00;;
39874;SDS011;25547;52.530;13.194;2023-02-01T17:14:54;1.00;;;0.00;;
39874;SDS011;25547;52.530;13.194;2023-02-01T17:17:23;3.00;;;0.20;;
39874;SDS011;25547;52.530;13.194;2023-02-01T17:19:54;1.10;;;0.00;;
39874;SDS011;25547;52.530;13.194;2023-02-01T17:22:25;19.10;;;0.75;;
39874;SDS011;25547;52.530;13.194;2023-02-01T17:24:50;4.05;;;0.63;;
39874;SDS011;25547;52.530;13.194;2023-02-01T17:27:16;2.42;;;0.10;;
39874;SDS011;25547;52.530;13.194;2023-02-01T17:29:44;2.85;;;0.10;;
39874;SDS011;25547;52.530;13.194;2023-02-01T17:32:21;3.75;;;0.10;;
39874;SDS011;25547;52.530;13.194;2023-02-01T17:34:48;3.50;;;0.10;;
39874;SDS011;25547;52.530;13.194;2023-02-01T17:39:51;5.32;;;0.70;;
39874;SDS011;25547;52.530;13.194;2023-02-01T17:42:20;3.55;;;0.10;;
39874;SDS011;25547;52.530;13.194;2023-02-01T17:44:54;3.22;;;0.00;;
39874;SDS011;25547;52.530;13.194;2023-02-01T17:47:22;6.93;;;0.10;;
39874;SDS011;25547;52.530;13.194;2023-02-01T17:49:47;0.60;;;0.05;;
39874;SDS011;25547;52.530;13.194;2023-02-01T17:52:20;2.60;;;0.10;;
39874;SDS011;25547;52.530;13.194;2023-02-01T17:54:50;2.15;;;0.00;;